sensor_id;sensor_type;location;lat;lon;timestamp;pressure;altitude;pressure_sealevel;temperature;humidity
41062;BME280;26812;42.662;23.352;2023-09-18T00:02:23;95382.13;;;18.68;77.92
41062;BME280;26812;42.662;23.352;2023-09-18T00:04:49;95383.53;;;18.62;78.57
41062;BME280;26812;42.662;23.352;2023-09-18T00:07:14;95399.59;;;18.83;77.95
41062;BME280;26812;42.662;23.352;2023-09-18T00:09:40;95395.31;;;19.01;77.22
41062;BME280;26812;42.662;23.352;2023-09-18T00:12:05;95374.81;;;18.56;78.16
41062;BME280;26812;42.662;23.352;2023-09-18T00:14:31;95385.19;;;18.67;78.62
41062;BME280;26812;42.662;23.352;2023-09-18T00:16:57;95401.03;;;18.61;78.63
41062;BME280;26812;42.662;23.352;2023-09-18T00:19:22;95371.13;;;18.49;78.94
41062;BME280;26812;42.662;23.352;2023-09-18T00:21:48;95369.53;;;18.64;78.41
41062;BME280;26812;42.662;23.352;2023-09-18T00:24:14;95366.44;;;18.65;78.37
41062;BME280;26812;42.662;23.352;2023-09-18T00:26:39;95379.91;;;18.74;78.20
41062;BME280;26812;42.662;23.352;2023-09-18T00:29:05;95400.47;;;19.06;77.25
41062;BME280;26812;42.662;23.352;2023-09-18T00:31:30;95394.28;;;19.09;76.67
41062;BME280;26812;42.662;23.352;2023-09-18T00:33:55;95375.97;;;18.90;76.43
41062;BME280;26812;42.662;23.352;2023-09-18T00:36:21;95399.22;;;18.84;77.57
41062;BME280;26812;42.662;23.352;2023-09-18T00:38:46;95391.53;;;18.71;77.74
41062;BME280;26812;42.662;23.352;2023-09-18T00:41:12;95387.06;;;18.63;77.88
41062;BME280;26812;42.662;23.352;2023-09-18T00:43:37;95396.88;;;18.83;77.24
41062;BME280;26812;42.662;23.352;2023-09-18T00:46:03;95404.13;;;18.95;76.55
41062;BME280;26812;42.662;23.352;2023-09-18T00:48:29;95398.88;;;18.86;76.33
41062;BME280;26812;42.662;23.352;2023-09-18T00:50:55;95403.41;;;18.98;76.17
41062;BME280;26812;42.662;23.352;2023-09-18T00:53:23;95407.56;;;18.91;76.14
41062;BME280;26812;42.662;23.352;2023-09-18T00:55:53;95392.91;;;18.80;75.77
41062;BME280;26812;42.662;23.352;2023-09-18T00:58:20;95397.94;;;18.98;74.91
41062;BME280;26812;42.662;23.352;2023-09-18T01:00:46;95395.94;;;18.95;75.05
41062;BME280;26812;42.662;23.352;2023-09-18T01:03:12;95393.69;;;18.81;75.55
41062;BME280;26812;42.662;23.352;2023-09-18T01:05:37;95399.91;;;19.16;74.34
41062;BME280;26812;42.662;23.352;2023-09-18T01:08:04;95413.25;;;19.21;73.88
41062;BME280;26812;42.662;23.352;2023-09-18T01:10:34;95413.19;;;19.18;74.05
41062;BME280;26812;42.662;23.352;2023-09-18T01:13:11;95406.88;;;19.14;74.09
41062;BME280;26812;42.662;23.352;2023-09-18T01:15:46;95403.25;;;18.71;74.73
41062;BME280;26812;42.662;23.352;2023-09-18T01:18:13;95415.50;;;19.16;74.10
41062;BME280;26812;42.662;23.352;2023-09-18T01:20:39;95372.94;;;18.76;74.08
41062;BME280;26812;42.662;23.352;2023-09-18T01:23:04;95418.38;;;19.04;74.00
41062;BME280;26812;42.662;23.352;2023-09-18T01:25:31;95396.97;;;19.06;73.29
41062;BME280;26812;42.662;23.352;2023-09-18T01:27:58;95398.56;;;18.72;74.41
41062;BME280;26812;42.662;23.352;2023-09-18T01:30:23;95405.28;;;19.13;73.24
41062;BME280;26812;42.662;23.352;2023-09-18T01:32:50;95405.47;;;18.85;74.07
41062;BME280;26812;42.662;23.352;2023-09-18T01:35:16;95408.16;;;19.01;73.33
41062;BME280;26812;42.662;23.352;2023-09-18T01:37:41;95406.13;;;18.98;73.48
41062;BME280;26812;42.662;23.352;2023-09-18T01:40:08;95412.59;;;18.89;73.73
41062;BME280;26812;42.662;23.352;2023-09-18T01:42:34;95406.41;;;18.73;74.17
41062;BME280;26812;42.662;23.352;2023-09-18T01:45:00;95416.63;;;18.96;73.83
41062;BME280;26812;42.662;23.352;2023-09-18T01:47:26;95414.00;;;18.99;73.56
41062;BME280;26812;42.662;23.352;2023-09-18T01:49:54;95408.41;;;18.76;74.54
41062;BME280;26812;42.662;23.352;2023-09-18T01:52:19;95394.97;;;18.68;74.67
41062;BME280;26812;42.662;23.352;2023-09-18T01:54:45;95406.28;;;18.85;74.71
41062;BME280;26812;42.662;23.352;2023-09-18T01:57:10;95409.75;;;19.02;73.78
41062;BME280;26812;42.662;23.352;2023-09-18T01:59:37;95404.53;;;18.77;74.13
41062;BME280;26812;42.662;23.352;2023-09-18T02:02:03;95424.94;;;18.83;74.65
41062;BME280;26812;42.662;23.352;2023-09-18T02:04:35;95420.06;;;18.92;74.48
41062;BME280;26812;42.662;23.352;2023-09-18T02:07:00;95426.84;;;18.99;74.34
41062;BME280;26812;42.662;23.352;2023-09-18T02:09:26;95421.53;;;19.06;73.72
41062;BME280;26812;42.662;23.352;2023-09-18T02:11:51;95419.63;;;18.90;73.94
41062;BME280;26812;42.662;23.352;2023-09-18T02:14:16;95412.31;;;18.75;74.57
41062;BME280;26812;42.662;23.352;2023-09-18T02:16:43;95375.59;;;18.73;73.92
41062;BME280;26812;42.662;23.352;2023-09-18T02:19:09;95425.34;;;19.01;73.78
41062;BME280;26812;42.662;23.352;2023-09-18T02:21:35;95425.03;;;18.87;74.17
41062;BME280;26812;42.662;23.352;2023-09-18T02:24:01;95391.72;;;18.62;74.57
41062;BME280;26812;42.662;23.352;2023-09-18T02:26:27;95407.13;;;18.89;74.12
41062;BME280;26812;42.662;23.352;2023-09-18T02:28:53;95422.78;;;18.92;74.03
41062;BME280;26812;42.662;23.352;2023-09-18T02:31:20;95418.56;;;18.95;74.08
41062;BME280;26812;42.662;23.352;2023-09-18T02:33:45;95424.56;;;19.01;74.07
41062;BME280;26812;42.662;23.352;2023-09-18T02:36:12;95427.13;;;19.13;73.32
41062;BME280;26812;42.662;23.352;2023-09-18T02:38:37;95421.47;;;19.02;73.00
41062;BME280;26812;42.662;23.352;2023-09-18T02:41:03;95421.72;;;18.78;73.41
41062;BME280;26812;42.662;23.352;2023-09-18T02:43:28;95418.97;;;18.78;73.65
41062;BME280;26812;42.662;23.352;2023-09-18T02:45:54;95424.59;;;18.85;73.27
41062;BME280;26812;42.662;23.352;2023-09-18T02:48:19;95417.53;;;18.84;73.63
41062;BME280;26812;42.662;23.352;2023-09-18T02:50:45;95411.25;;;18.64;74.04
41062;BME280;26812;42.662;23.352;2023-09-18T02:53:21;95417.47;;;18.80;73.28
41062;BME280;26812;42.662;23.352;2023-09-18T02:55:54;95420.56;;;18.79;73.84
41062;BME280;26812;42.662;23.352;2023-09-18T02:58:21;95408.78;;;18.59;73.69
41062;BME280;26812;42.662;23.352;2023-09-18T03:00:50;95413.78;;;18.57;74.40
41062;BME280;26812;42.662;23.352;2023-09-18T03:03:16;95425.78;;;18.37;75.40
41062;BME280;26812;42.662;23.352;2023-09-18T03:05:43;95433.09;;;18.48;75.26
41062;BME280;26812;42.662;23.352;2023-09-18T03:08:10;95423.69;;;18.30;75.56
41062;BME280;26812;42.662;23.352;2023-09-18T03:10:40;95418.06;;;18.39;74.77
41062;BME280;26812;42.662;23.352;2023-09-18T03:13:07;95427.84;;;18.40;75.51
41062;BME280;26812;42.662;23.352;2023-09-18T03:15:34;95425.47;;;18.38;75.59
41062;BME280;26812;42.662;23.352;2023-09-18T03:18:00;95422.72;;;18.38;75.58
41062;BME280;26812;42.662;23.352;2023-09-18T03:20:26;95429.41;;;18.25;76.09
41062;BME280;26812;42.662;23.352;2023-09-18T03:22:54;95421.50;;;18.20;75.98
41062;BME280;26812;42.662;23.352;2023-09-18T03:25:20;95419.66;;;18.40;75.58
41062;BME280;26812;42.662;23.352;2023-09-18T03:27:53;95425.72;;;18.33;75.67
41062;BME280;26812;42.662;23.352;2023-09-18T03:30:20;95417.09;;;18.47;75.10
41062;BME280;26812;42.662;23.352;2023-09-18T03:32:45;95400.31;;;18.13;76.03
41062;BME280;26812;42.662;23.352;2023-09-18T03:35:11;95408.75;;;18.24;75.90
41062;BME280;26812;42.662;23.352;2023-09-18T03:37:53;95407.34;;;18.14;76.48
41062;BME280;26812;42.662;23.352;2023-09-18T03:40:19;95411.13;;;18.25;76.50
41062;BME280;26812;42.662;23.352;2023-09-18T03:42:45;95405.81;;;18.33;75.57
41062;BME280;26812;42.662;23.352;2023-09-18T03:45:11;95401.25;;;18.37;75.40
41062;BME280;26812;42.662;23.352;2023-09-18T03:47:38;95393.94;;;18.41;74.86
41062;BME280;26812;42.662;23.352;2023-09-18T03:50:09;95406.25;;;18.35;75.46
41062;BME280;26812;42.662;23.352;2023-09-18T03:52:36;95412.06;;;18.33;75.69
41062;BME280;26812;42.662;23.352;2023-09-18T03:55:01;95405.59;;;18.22;76.20
41062;BME280;26812;42.662;23.352;2023-09-18T03:57:27;95402.69;;;17.99;77.00
41062;BME280;26812;42.662;23.352;2023-09-18T03:59:53;95393.63;;;18.11;77.12
41062;BME280;26812;42.662;23.352;2023-09-18T04:02:18;95402.53;;;18.08;77.00
41062;BME280;26812;42.662;23.352;2023-09-18T04:04:43;95397.94;;;18.12;76.67
41062;BME280;26812;42.662;23.352;2023-09-18T04:07:09;95393.59;;;18.26;75.86
41062;BME280;26812;42.662;23.352;2023-09-18T04:09:35;95393.56;;;18.07;76.62
41062;BME280;26812;42.662;23.352;2023-09-18T04:12:01;95401.44;;;18.28;75.86
41062;BME280;26812;42.662;23.352;2023-09-18T04:14:27;95401.88;;;18.30;75.84
41062;BME280;26812;42.662;23.352;2023-09-18T04:16:52;95390.53;;;17.96;76.67
41062;BME280;26812;42.662;23.352;2023-09-18T04:19:18;95405.41;;;17.99;77.40
41062;BME280;26812;42.662;23.352;2023-09-18T04:21:43;95401.63;;;17.88;77.31
41062;BME280;26812;42.662;23.352;2023-09-18T04:24:08;95408.31;;;17.90;77.90
41062;BME280;26812;42.662;23.352;2023-09-18T04:26:34;95400.31;;;17.97;77.20
41062;BME280;26812;42.662;23.352;2023-09-18T04:29:00;95412.88;;;18.18;76.87
41062;BME280;26812;42.662;23.352;2023-09-18T04:31:26;95417.53;;;18.33;76.03
41062;BME280;26812;42.662;23.352;2023-09-18T04:33:52;95421.47;;;18.36;75.68
41062;BME280;26812;42.662;23.352;2023-09-18T04:36:18;95414.03;;;18.17;76.27
41062;BME280;26812;42.662;23.352;2023-09-18T04:38:43;95406.72;;;18.21;76.31
41062;BME280;26812;42.662;23.352;2023-09-18T04:41:08;95396.44;;;17.83;77.46
41062;BME280;26812;42.662;23.352;2023-09-18T04:43:36;95422.56;;;17.99;77.33
41062;BME280;26812;42.662;23.352;2023-09-18T04:46:02;95414.81;;;18.17;76.42
41062;BME280;26812;42.662;23.352;2023-09-18T04:48:29;95407.88;;;18.04;76.77
41062;BME280;26812;42.662;23.352;2023-09-18T04:50:55;95415.69;;;18.21;76.57
41062;BME280;26812;42.662;23.352;2023-09-18T04:53:21;95416.50;;;18.22;76.37
41062;BME280;26812;42.662;23.352;2023-09-18T04:55:46;95376.13;;;17.96;76.53
41062;BME280;26812;42.662;23.352;2023-09-18T04:58:14;95410.75;;;18.27;76.13
41062;BME280;26812;42.662;23.352;2023-09-18T05:00:40;95403.28;;;18.40;75.21
41062;BME280;26812;42.662;23.352;2023-09-18T05:03:07;95383.41;;;18.39;74.89
41062;BME280;26812;42.662;23.352;2023-09-18T05:05:34;95401.44;;;18.44;75.09
41062;BME280;26812;42.662;23.352;2023-09-18T05:08:01;95403.88;;;18.49;75.20
41062;BME280;26812;42.662;23.352;2023-09-18T05:10:28;95416.16;;;18.58;75.24
41062;BME280;26812;42.662;23.352;2023-09-18T05:12:54;95409.84;;;18.70;74.66
41062;BME280;26812;42.662;23.352;2023-09-18T05:15:24;95421.44;;;18.83;74.28
41062;BME280;26812;42.662;23.352;2023-09-18T05:17:51;95405.34;;;18.78;73.31
41062;BME280;26812;42.662;23.352;2023-09-18T05:20:19;95430.69;;;18.98;73.10
41062;BME280;26812;42.662;23.352;2023-09-18T05:22:45;95425.16;;;18.94;73.24
41062;BME280;26812;42.662;23.352;2023-09-18T05:25:11;95422.63;;;19.01;72.69
41062;BME280;26812;42.662;23.352;2023-09-18T05:27:37;95441.94;;;19.12;72.54
41062;BME280;26812;42.662;23.352;2023-09-18T05:30:14;95421.16;;;18.88;73.65
41062;BME280;26812;42.662;23.352;2023-09-18T05:32:44;95421.63;;;19.29;72.59
41062;BME280;26812;42.662;23.352;2023-09-18T05:35:11;95423.25;;;19.52;71.64
41062;BME280;26812;42.662;23.352;2023-09-18T05:37:38;95426.59;;;19.62;70.51
41062;BME280;26812;42.662;23.352;2023-09-18T05:40:08;95430.47;;;19.61;70.42
41062;BME280;26812;42.662;23.352;2023-09-18T05:42:35;95434.63;;;19.54;70.01
41062;BME280;26812;42.662;23.352;2023-09-18T05:45:02;95412.47;;;19.21;70.86
41062;BME280;26812;42.662;23.352;2023-09-18T05:47:31;95434.59;;;19.16;71.49
41062;BME280;26812;42.662;23.352;2023-09-18T05:49:57;95422.31;;;19.06;71.79
41062;BME280;26812;42.662;23.352;2023-09-18T05:52:22;95430.31;;;19.34;71.50
41062;BME280;26812;42.662;23.352;2023-09-18T05:54:49;95436.97;;;19.75;70.14
41062;BME280;26812;42.662;23.352;2023-09-18T05:57:14;95440.41;;;20.14;68.55
41062;BME280;26812;42.662;23.352;2023-09-18T05:59:40;95435.34;;;20.16;68.41
41062;BME280;26812;42.662;23.352;2023-09-18T06:02:09;95436.47;;;20.12;68.11
41062;BME280;26812;42.662;23.352;2023-09-18T06:04:34;95426.72;;;20.14;67.79
41062;BME280;26812;42.662;23.352;2023-09-18T06:07:03;95439.38;;;20.00;68.84
41062;BME280;26812;42.662;23.352;2023-09-18T06:09:28;95439.31;;;20.19;68.77
41062;BME280;26812;42.662;23.352;2023-09-18T06:11:54;95419.72;;;20.17;68.38
41062;BME280;26812;42.662;23.352;2023-09-18T06:14:19;95436.84;;;20.56;67.36
41062;BME280;26812;42.662;23.352;2023-09-18T06:16:44;95424.53;;;20.46;66.87
41062;BME280;26812;42.662;23.352;2023-09-18T06:19:10;95425.97;;;19.91;68.48
41062;BME280;26812;42.662;23.352;2023-09-18T06:21:35;95425.22;;;19.94;68.30
41062;BME280;26812;42.662;23.352;2023-09-18T06:24:00;95426.94;;;20.25;67.88
41062;BME280;26812;42.662;23.352;2023-09-18T06:26:26;95449.88;;;20.66;66.59
41062;BME280;26812;42.662;23.352;2023-09-18T06:28:52;95445.25;;;20.97;65.27
41062;BME280;26812;42.662;23.352;2023-09-18T06:31:20;95448.31;;;20.65;65.88
41062;BME280;26812;42.662;23.352;2023-09-18T06:33:45;95435.88;;;20.71;66.03
41062;BME280;26812;42.662;23.352;2023-09-18T06:36:11;95444.97;;;20.79;65.46
41062;BME280;26812;42.662;23.352;2023-09-18T06:38:36;95448.41;;;20.99;64.47
41062;BME280;26812;42.662;23.352;2023-09-18T06:41:02;95431.25;;;21.05;64.06
41062;BME280;26812;42.662;23.352;2023-09-18T06:43:27;95451.63;;;21.34;63.48
41062;BME280;26812;42.662;23.352;2023-09-18T06:45:53;95445.94;;;21.47;62.96
41062;BME280;26812;42.662;23.352;2023-09-18T06:48:18;95439.34;;;21.88;62.49
41062;BME280;26812;42.662;23.352;2023-09-18T06:50:44;95454.75;;;22.92;58.83
41062;BME280;26812;42.662;23.352;2023-09-18T06:53:09;95445.50;;;23.21;57.24
41062;BME280;26812;42.662;23.352;2023-09-18T06:55:36;95435.97;;;23.81;54.94
41062;BME280;26812;42.662;23.352;2023-09-18T06:58:01;95437.59;;;24.03;53.74
41062;BME280;26812;42.662;23.352;2023-09-18T07:00:26;95428.53;;;23.96;53.27
41062;BME280;26812;42.662;23.352;2023-09-18T07:02:52;95440.53;;;23.48;54.82
41062;BME280;26812;42.662;23.352;2023-09-18T07:05:17;95443.81;;;23.86;54.09
41062;BME280;26812;42.662;23.352;2023-09-18T07:07:43;95448.25;;;24.23;53.37
41062;BME280;26812;42.662;23.352;2023-09-18T07:10:08;95446.31;;;24.37;52.68
41062;BME280;26812;42.662;23.352;2023-09-18T07:12:34;95433.34;;;24.56;51.97
41062;BME280;26812;42.662;23.352;2023-09-18T07:15:01;95443.78;;;23.72;53.35
41062;BME280;26812;42.662;23.352;2023-09-18T07:17:28;95447.16;;;22.71;56.53
41062;BME280;26812;42.662;23.352;2023-09-18T07:19:53;95422.69;;;22.52;57.14
41062;BME280;26812;42.662;23.352;2023-09-18T07:22:19;95411.34;;;23.22;55.59
41062;BME280;26812;42.662;23.352;2023-09-18T07:24:44;95433.69;;;24.19;53.76
41062;BME280;26812;42.662;23.352;2023-09-18T07:27:11;95440.81;;;24.80;51.88
41062;BME280;26812;42.662;23.352;2023-09-18T07:29:43;95447.50;;;24.29;51.62
41062;BME280;26812;42.662;23.352;2023-09-18T07:32:09;95463.84;;;23.79;52.57
41062;BME280;26812;42.662;23.352;2023-09-18T07:34:34;95449.16;;;23.47;54.16
41062;BME280;26812;42.662;23.352;2023-09-18T07:37:00;95454.28;;;23.48;54.63
41062;BME280;26812;42.662;23.352;2023-09-18T07:39:26;95442.88;;;23.46;54.25
41062;BME280;26812;42.662;23.352;2023-09-18T07:41:51;95448.75;;;23.41;54.97
41062;BME280;26812;42.662;23.352;2023-09-18T07:44:21;95447.31;;;23.62;54.90
41062;BME280;26812;42.662;23.352;2023-09-18T07:46:46;95451.25;;;23.71;54.59
41062;BME280;26812;42.662;23.352;2023-09-18T07:49:12;95443.41;;;23.73;54.28
41062;BME280;26812;42.662;23.352;2023-09-18T07:51:39;95450.88;;;23.73;53.46
41062;BME280;26812;42.662;23.352;2023-09-18T07:54:06;95443.78;;;23.61;53.74
41062;BME280;26812;42.662;23.352;2023-09-18T07:56:32;95444.66;;;23.97;53.25
41062;BME280;26812;42.662;23.352;2023-09-18T07:58:59;95443.00;;;23.71;53.68
41062;BME280;26812;42.662;23.352;2023-09-18T08:01:25;95448.59;;;24.00;52.98
41062;BME280;26812;42.662;23.352;2023-09-18T08:03:50;95444.75;;;24.29;52.83
41062;BME280;26812;42.662;23.352;2023-09-18T08:06:15;95443.16;;;24.64;50.91
41062;BME280;26812;42.662;23.352;2023-09-18T08:08:43;95433.19;;;25.37;48.81
41062;BME280;26812;42.662;23.352;2023-09-18T08:11:09;95429.94;;;25.64;47.44
41062;BME280;26812;42.662;23.352;2023-09-18T08:13:34;95430.97;;;25.98;47.17
41062;BME280;26812;42.662;23.352;2023-09-18T08:16:00;95435.31;;;25.96;47.00
41062;BME280;26812;42.662;23.352;2023-09-18T08:18:26;95423.28;;;25.54;47.60
41062;BME280;26812;42.662;23.352;2023-09-18T08:20:52;95444.91;;;25.70;47.42
41062;BME280;26812;42.662;23.352;2023-09-18T08:23:19;95413.09;;;25.41;47.87
41062;BME280;26812;42.662;23.352;2023-09-18T08:25:44;95433.22;;;25.34;47.70
41062;BME280;26812;42.662;23.352;2023-09-18T08:28:10;95422.72;;;24.36;49.44
41062;BME280;26812;42.662;23.352;2023-09-18T08:30:36;95435.53;;;23.65;53.22
41062;BME280;26812;42.662;23.352;2023-09-18T08:33:02;95426.22;;;24.26;51.03
41062;BME280;26812;42.662;23.352;2023-09-18T08:35:28;95419.50;;;25.13;48.75
41062;BME280;26812;42.662;23.352;2023-09-18T08:37:55;95415.53;;;25.21;48.66
41062;BME280;26812;42.662;23.352;2023-09-18T08:40:22;95410.41;;;25.26;48.57
41062;BME280;26812;42.662;23.352;2023-09-18T08:42:50;95412.75;;;25.28;48.06
41062;BME280;26812;42.662;23.352;2023-09-18T08:45:27;95405.56;;;25.55;47.18
41062;BME280;26812;42.662;23.352;2023-09-18T08:47:54;95411.41;;;25.64;47.78
41062;BME280;26812;42.662;23.352;2023-09-18T08:50:20;95406.59;;;25.86;46.93
41062;BME280;26812;42.662;23.352;2023-09-18T08:52:47;95389.00;;;25.55;46.53
41062;BME280;26812;42.662;23.352;2023-09-18T08:55:13;95396.53;;;25.48;47.18
41062;BME280;26812;42.662;23.352;2023-09-18T08:57:39;95400.13;;;25.30;48.41
41062;BME280;26812;42.662;23.352;2023-09-18T09:00:07;95398.03;;;25.59;47.57
41062;BME280;26812;42.662;23.352;2023-09-18T09:02:34;95391.66;;;25.80;46.95
41062;BME280;26812;42.662;23.352;2023-09-18T09:04:59;95383.84;;;25.72;45.87
41062;BME280;26812;42.662;23.352;2023-09-18T09:07:25;95401.50;;;25.85;45.40
41062;BME280;26812;42.662;23.352;2023-09-18T09:09:51;95390.88;;;25.80;45.71
41062;BME280;26812;42.662;23.352;2023-09-18T09:12:46;95400.38;;;25.64;45.80
41062;BME280;26812;42.662;23.352;2023-09-18T09:15:11;95398.50;;;25.47;46.65
41062;BME280;26812;42.662;23.352;2023-09-18T09:17:37;95396.53;;;25.51;45.90
41062;BME280;26812;42.662;23.352;2023-09-18T09:20:10;95400.78;;;25.66;45.91
41062;BME280;26812;42.662;23.352;2023-09-18T09:22:39;95402.47;;;25.39;46.21
41062;BME280;26812;42.662;23.352;2023-09-18T09:25:29;95391.59;;;25.91;45.44
41062;BME280;26812;42.662;23.352;2023-09-18T09:28:00;95389.06;;;26.14;44.63
41062;BME280;26812;42.662;23.352;2023-09-18T09:30:27;95393.66;;;25.80;44.92
41062;BME280;26812;42.662;23.352;2023-09-18T09:32:55;95391.81;;;25.48;45.47
41062;BME280;26812;42.662;23.352;2023-09-18T09:35:25;95394.31;;;25.07;45.80
41062;BME280;26812;42.662;23.352;2023-09-18T09:38:07;95373.53;;;24.56;47.05
41062;BME280;26812;42.662;23.352;2023-09-18T09:40:33;95382.97;;;24.44;47.26
41062;BME280;26812;42.662;23.352;2023-09-18T09:43:00;95373.91;;;24.69;47.48
41062;BME280;26812;42.662;23.352;2023-09-18T09:45:31;95374.66;;;24.76;47.15
41062;BME280;26812;42.662;23.352;2023-09-18T09:48:04;95377.75;;;25.18;46.31
41062;BME280;26812;42.662;23.352;2023-09-18T09:50:31;95370.19;;;25.32;44.90
41062;BME280;26812;42.662;23.352;2023-09-18T09:52:57;95364.63;;;25.47;44.08
41062;BME280;26812;42.662;23.352;2023-09-18T09:55:30;95370.53;;;25.49;44.02
41062;BME280;26812;42.662;23.352;2023-09-18T09:58:01;95366.91;;;25.59;44.02
41062;BME280;26812;42.662;23.352;2023-09-18T10:00:36;95366.59;;;25.39;43.15
41062;BME280;26812;42.662;23.352;2023-09-18T10:03:12;95365.56;;;24.94;44.98
41062;BME280;26812;42.662;23.352;2023-09-18T10:05:40;95366.75;;;25.07;44.58
41062;BME280;26812;42.662;23.352;2023-09-18T10:08:19;95358.03;;;25.23;44.09
41062;BME280;26812;42.662;23.352;2023-09-18T10:10:49;95365.16;;;25.17;44.53
41062;BME280;26812;42.662;23.352;2023-09-18T10:16:06;95362.53;;;25.68;44.32
41062;BME280;26812;42.662;23.352;2023-09-18T10:21:22;95356.66;;;26.22;42.52
41062;BME280;26812;42.662;23.352;2023-09-18T10:26:26;95353.16;;;26.18;42.73
41062;BME280;26812;42.662;23.352;2023-09-18T10:28:55;95356.94;;;26.42;41.92
41062;BME280;26812;42.662;23.352;2023-09-18T10:31:25;95336.25;;;26.57;41.45
41062;BME280;26812;42.662;23.352;2023-09-18T10:33:52;95344.63;;;26.87;39.85
41062;BME280;26812;42.662;23.352;2023-09-18T10:36:19;95324.94;;;26.44;40.13
41062;BME280;26812;42.662;23.352;2023-09-18T10:38:46;95327.50;;;26.66;40.27
41062;BME280;26812;42.662;23.352;2023-09-18T10:41:19;95318.97;;;26.49;39.92
41062;BME280;26812;42.662;23.352;2023-09-18T10:43:46;95312.28;;;26.47;40.43
41062;BME280;26812;42.662;23.352;2023-09-18T10:46:13;95319.00;;;26.83;40.06
41062;BME280;26812;42.662;23.352;2023-09-18T10:48:42;95313.09;;;27.19;39.38
41062;BME280;26812;42.662;23.352;2023-09-18T10:51:09;95311.56;;;27.14;39.47
41062;BME280;26812;42.662;23.352;2023-09-18T10:53:36;95316.50;;;27.00;39.25
41062;BME280;26812;42.662;23.352;2023-09-18T10:56:02;95313.91;;;27.16;39.27
41062;BME280;26812;42.662;23.352;2023-09-18T10:58:32;95306.75;;;27.49;38.33
41062;BME280;26812;42.662;23.352;2023-09-18T11:01:02;95301.75;;;27.10;38.71
41062;BME280;26812;42.662;23.352;2023-09-18T11:03:27;95303.31;;;27.41;38.41
41062;BME280;26812;42.662;23.352;2023-09-18T11:06:07;95313.81;;;27.27;38.31
41062;BME280;26812;42.662;23.352;2023-09-18T11:08:43;95300.75;;;27.54;38.20
41062;BME280;26812;42.662;23.352;2023-09-18T11:11:10;95296.06;;;27.20;38.05
41062;BME280;26812;42.662;23.352;2023-09-18T11:13:48;95284.09;;;26.63;39.22
41062;BME280;26812;42.662;23.352;2023-09-18T11:19:10;95287.34;;;27.52;37.72
41062;BME280;26812;42.662;23.352;2023-09-18T11:21:36;95292.63;;;27.13;37.89
41062;BME280;26812;42.662;23.352;2023-09-18T11:26:32;95277.38;;;27.32;37.66
41062;BME280;26812;42.662;23.352;2023-09-18T11:29:02;95277.00;;;27.30;38.08
41062;BME280;26812;42.662;23.352;2023-09-18T11:31:52;95267.22;;;26.87;38.03
41062;BME280;26812;42.662;23.352;2023-09-18T11:34:29;95276.41;;;27.15;38.21
41062;BME280;26812;42.662;23.352;2023-09-18T11:37:02;95259.22;;;27.58;36.88
41062;BME280;26812;42.662;23.352;2023-09-18T11:39:33;95267.72;;;27.43;37.39
41062;BME280;26812;42.662;23.352;2023-09-18T11:42:19;95257.97;;;27.35;37.50
41062;BME280;26812;42.662;23.352;2023-09-18T11:44:48;95251.13;;;27.43;37.92
41062;BME280;26812;42.662;23.352;2023-09-18T11:47:19;95253.69;;;27.84;37.53
41062;BME280;26812;42.662;23.352;2023-09-18T11:49:58;95245.50;;;28.01;35.95
41062;BME280;26812;42.662;23.352;2023-09-18T11:52:30;95241.31;;;27.93;36.08
41062;BME280;26812;42.662;23.352;2023-09-18T11:54:59;95233.88;;;28.09;35.95
41062;BME280;26812;42.662;23.352;2023-09-18T11:57:25;95244.78;;;27.73;35.89
41062;BME280;26812;42.662;23.352;2023-09-18T11:59:51;95237.97;;;27.78;37.07
41062;BME280;26812;42.662;23.352;2023-09-18T12:02:27;95245.31;;;28.11;35.45
41062;BME280;26812;42.662;23.352;2023-09-18T12:04:56;95244.56;;;27.61;36.14
41062;BME280;26812;42.662;23.352;2023-09-18T12:07:21;95234.56;;;27.40;37.17
41062;BME280;26812;42.662;23.352;2023-09-18T12:09:48;95223.66;;;28.06;36.48
41062;BME280;26812;42.662;23.352;2023-09-18T12:12:15;95236.59;;;28.13;35.56
41062;BME280;26812;42.662;23.352;2023-09-18T12:14:41;95233.09;;;27.86;35.88
41062;BME280;26812;42.662;23.352;2023-09-18T12:17:14;95238.22;;;27.60;36.73
41062;BME280;26812;42.662;23.352;2023-09-18T12:19:52;95195.31;;;27.21;38.15
41062;BME280;26812;42.662;23.352;2023-09-18T12:22:29;95239.00;;;27.61;37.98
41062;BME280;26812;42.662;23.352;2023-09-18T12:25:12;95241.47;;;28.05;37.15
41062;BME280;26812;42.662;23.352;2023-09-18T12:27:39;95234.13;;;27.95;37.18
41062;BME280;26812;42.662;23.352;2023-09-18T12:30:05;95228.91;;;28.24;37.02
41062;BME280;26812;42.662;23.352;2023-09-18T12:32:32;95219.28;;;27.32;38.21
41062;BME280;26812;42.662;23.352;2023-09-18T12:35:01;95237.19;;;27.50;38.45
41062;BME280;26812;42.662;23.352;2023-09-18T12:37:26;95218.00;;;27.90;38.02
41062;BME280;26812;42.662;23.352;2023-09-18T12:39:51;95207.34;;;27.89;37.92
41062;BME280;26812;42.662;23.352;2023-09-18T12:42:19;95227.75;;;27.75;37.44
41062;BME280;26812;42.662;23.352;2023-09-18T12:44:46;95224.91;;;27.51;37.76
41062;BME280;26812;42.662;23.352;2023-09-18T12:47:12;95232.00;;;27.52;38.50
41062;BME280;26812;42.662;23.352;2023-09-18T12:49:38;95225.63;;;27.02;38.99
41062;BME280;26812;42.662;23.352;2023-09-18T12:52:05;95229.03;;;27.13;38.83
41062;BME280;26812;42.662;23.352;2023-09-18T12:54:51;95213.69;;;27.35;38.52
41062;BME280;26812;42.662;23.352;2023-09-18T12:57:21;95222.41;;;27.07;38.81
41062;BME280;26812;42.662;23.352;2023-09-18T12:59:46;95221.13;;;26.81;38.93
41062;BME280;26812;42.662;23.352;2023-09-18T13:02:17;95218.94;;;27.30;38.83
41062;BME280;26812;42.662;23.352;2023-09-18T13:04:54;95216.06;;;27.64;38.12
41062;BME280;26812;42.662;23.352;2023-09-18T13:07:20;95209.34;;;27.88;37.11